Time;durP1;ratioP1;P1;durP2;ratioP2;P2;SDS_P1;SDS_P2;PMS_P1;PMS_P2;Temp;Humidity;BMP_temperature;BMP_pressure;BME280_temperature;BME280_humidity;BME280_pressure;Samples;Min_cycle;Max_cycle;Signal;HPM_P1;HPM_P2
2023/04/04 00:00:05;;;;;;;2.83;1.70;;;0.30;99.90;;;;;;5055731;28;20222;-55
2023/04/04 00:02:34;;;;;;;2.97;2.00;;;0.30;99.90;;;;;;5052722;28;20716;-53
2023/04/04 00:05:01;;;;;;;3.57;1.60;;;0.20;99.90;;;;;;5043922;28;20288;-56
2023/04/04 00:07:28;;;;;;;5.93;1.83;;;0.20;99.90;;;;;;5050209;28;20227;-54
2023/04/04 00:09:55;;;;;;;3.47;1.67;;;0.20;99.90;;;;;;5055977;28;20781;-55
2023/04/04 00:12:24;;;;;;;3.47;1.60;;;0.20;99.90;;;;;;5051647;28;20212;-53
2023/04/04 00:14:51;;;;;;;2.17;1.60;;;0.20;99.90;;;;;;5036508;28;20243;-54
2023/04/04 00:17:18;;;;;;;2.67;1.53;;;0.20;99.90;;;;;;5045336;28;20197;-56
2023/04/04 00:19:46;;;;;;;2.83;1.57;;;0.20;99.90;;;;;;5045068;28;20235;-53
2023/04/04 00:22:13;;;;;;;1.70;1.27;;;0.20;99.90;;;;;;5047534;28;20197;-66
2023/04/04 00:24:40;;;;;;;3.63;1.80;;;0.20;99.90;;;;;;5058265;28;20195;-51
2023/04/04 00:27:07;;;;;;;6.83;2.10;;;0.20;99.90;;;;;;5050146;28;20212;-56
2023/04/04 00:29:36;;;;;;;4.67;1.90;;;0.10;99.90;;;;;;5035726;28;21700;-54
2023/04/04 00:32:03;;;;;;;3.30;2.17;;;0.10;99.90;;;;;;5053483;28;20204;-56
2023/04/04 00:34:30;;;;;;;5.77;1.60;;;0.10;99.90;;;;;;5049395;28;20302;-53
2023/04/04 00:36:57;;;;;;;2.30;1.80;;;0.00;99.90;;;;;;5053637;28;20204;-56
2023/04/04 00:39:25;;;;;;;2.83;1.47;;;0.10;99.90;;;;;;5053837;28;20264;-51
2023/04/04 00:41:52;;;;;;;3.00;1.40;;;0.10;99.90;;;;;;5052772;28;20212;-55
2023/04/04 00:44:20;;;;;;;4.30;1.97;;;0.00;99.90;;;;;;5051930;28;20964;-53
2023/04/04 00:46:48;;;;;;;2.90;1.27;;;0.00;99.90;;;;;;5038263;28;20554;-52
2023/04/04 00:49:15;;;;;;;2.33;1.60;;;0.00;99.90;;;;;;5045446;28;20213;-55
2023/04/04 00:51:42;;;;;;;2.70;1.37;;;0.00;99.90;;;;;;5053628;28;20217;-53
2023/04/04 00:54:09;;;;;;;3.17;1.70;;;0.00;99.90;;;;;;5045195;28;20931;-56
2023/04/04 00:56:38;;;;;;;2.83;2.10;;;-0.10;99.90;;;;;;5055665;28;20658;-55
2023/04/04 00:59:06;;;;;;;2.93;1.60;;;-0.10;99.90;;;;;;5048480;28;20260;-57
2023/04/04 01:01:33;;;;;;;6.10;2.00;;;-0.10;99.90;;;;;;5035213;28;20442;-55
2023/04/04 01:04:02;;;;;;;1.73;1.23;;;-0.10;99.90;;;;;;5056037;28;20607;-55
2023/04/04 01:06:31;;;;;;;3.23;1.77;;;-0.10;99.90;;;;;;5057825;28;20227;-55
2023/04/04 01:09:02;;;;;;;2.97;1.70;;;-0.10;99.90;;;;;;5053985;28;20223;-56
2023/04/04 01:11:29;;;;;;;2.20;1.50;;;-0.10;99.90;;;;;;5043253;28;20204;-56
2023/04/04 01:14:18;;;;;;;1.67;1.50;;;-0.10;99.90;;;;;;5053001;28;20215;-54
2023/04/04 01:16:49;;;;;;;3.27;1.60;;;-0.10;99.90;;;;;;5030738;28;21285;-55
2023/04/04 01:19:32;;;;;;;3.20;1.50;;;-0.10;99.90;;;;;;5049422;28;20240;-56
2023/04/04 01:22:02;;;;;;;1.00;0.90;;;-0.10;99.90;;;;;;5051605;28;20208;-53
2023/04/04 01:24:33;;;;;;;3.03;1.50;;;-0.10;99.90;;;;;;5046544;28;20745;-55
2023/04/04 01:27:05;;;;;;;2.50;1.83;;;-0.10;99.90;;;;;;5059606;28;20773;-53
2023/04/04 01:29:37;;;;;;;2.23;1.70;;;-0.20;99.90;;;;;;5038963;28;20214;-55
2023/04/04 01:32:10;;;;;;;6.53;1.70;;;-0.20;99.90;;;;;;5036660;28;20292;-54
2023/04/04 01:34:47;;;;;;;4.17;1.60;;;-0.10;99.90;;;;;;5045702;28;20287;-54
2023/04/04 01:37:23;;;;;;;2.63;1.57;;;-0.10;99.90;;;;;;5052525;28;20602;-54
2023/04/04 01:39:56;;;;;;;2.40;1.97;;;-0.10;99.90;;;;;;5056701;28;20228;-58
2023/04/04 01:42:25;;;;;;;1.43;1.30;;;-0.20;99.90;;;;;;5065666;28;20199;-56
2023/04/04 01:44:55;;;;;;;3.87;1.40;;;-0.20;99.90;;;;;;5058340;28;21095;-52
2023/04/04 01:47:25;;;;;;;6.23;1.83;;;-0.20;99.90;;;;;;5055008;28;20579;-56
2023/04/04 01:49:53;;;;;;;3.20;1.50;;;-0.20;99.90;;;;;;5056014;28;20233;-51
2023/04/04 01:52:21;;;;;;;3.43;1.40;;;-0.20;99.90;;;;;;5075899;28;20210;-56
2023/04/04 01:54:48;;;;;;;3.17;1.60;;;-0.20;99.90;;;;;;5053558;28;20213;-54
2023/04/04 01:57:18;;;;;;;2.73;1.50;;;-0.20;99.90;;;;;;5060228;28;20238;-54
2023/04/04 01:59:47;;;;;;;2.77;1.53;;;-0.20;99.90;;;;;;5056498;28;20212;-52
2023/04/04 02:02:17;;;;;;;3.37;1.67;;;-0.20;99.90;;;;;;5055959;28;20595;-55
2023/04/04 02:04:44;;;;;;;2.97;1.90;;;-0.20;99.90;;;;;;5030408;28;20196;-52
2023/04/04 02:07:11;;;;;;;5.43;1.60;;;-0.20;99.90;;;;;;5051740;28;20236;-52
2023/04/04 02:09:39;;;;;;;3.50;1.73;;;-0.20;99.90;;;;;;5075338;28;20236;-54
2023/04/04 02:12:06;;;;;;;2.60;1.67;;;-0.20;99.90;;;;;;5069651;28;20567;-54
2023/04/04 02:14:33;;;;;;;2.23;1.77;;;-0.20;99.90;;;;;;5065427;28;20287;-56
2023/04/04 02:17:01;;;;;;;9.47;2.23;;;-0.20;99.90;;;;;;5057110;28;20274;-56
2023/04/04 02:19:28;;;;;;;3.53;1.67;;;-0.10;99.90;;;;;;5051396;28;20850;-54
2023/04/04 02:21:56;;;;;;;4.17;2.07;;;-0.20;99.90;;;;;;5069874;28;20200;-54
2023/04/04 02:24:22;;;;;;;2.20;1.43;;;-0.20;99.90;;;;;;5050289;28;20257;-56
2023/04/04 02:26:49;;;;;;;3.80;1.70;;;-0.30;99.90;;;;;;5060555;28;20208;-51
2023/04/04 02:29:16;;;;;;;2.30;1.40;;;-0.30;99.90;;;;;;5050549;28;20294;-55
2023/04/04 02:31:43;;;;;;;2.83;1.37;;;-0.30;99.90;;;;;;5048191;28;20209;-52
2023/04/04 02:34:11;;;;;;;2.83;2.10;;;-0.40;99.90;;;;;;5039298;28;20215;-55
2023/04/04 02:36:39;;;;;;;2.53;1.90;;;-0.30;99.90;;;;;;5070967;28;20234;-55
2023/04/04 02:39:05;;;;;;;3.13;1.63;;;-0.30;99.90;;;;;;5067407;28;20200;-55
2023/04/04 02:41:32;;;;;;;1.90;1.53;;;-0.30;99.90;;;;;;5057121;28;20196;-53
2023/04/04 02:43:59;;;;;;;5.63;1.90;;;-0.30;99.90;;;;;;5051465;28;20569;-56
2023/04/04 02:46:26;;;;;;;4.90;1.80;;;-0.30;99.90;;;;;;5055598;28;20328;-56
2023/04/04 02:49:01;;;;;;;3.07;1.73;;;-0.40;99.90;;;;;;5041243;28;20231;-57
2023/04/04 02:51:32;;;;;;;1.80;1.57;;;-0.30;99.90;;;;;;5058556;28;20191;-54
2023/04/04 02:54:02;;;;;;;3.40;2.10;;;-0.30;99.90;;;;;;5046411;28;20572;-56
2023/04/04 02:56:37;;;;;;;5.50;1.80;;;-0.30;99.90;;;;;;5054664;28;20291;-54
2023/04/04 02:59:04;;;;;;;3.83;1.90;;;-0.30;99.90;;;;;;5057478;28;20280;-53
2023/04/04 03:01:31;;;;;;;3.53;1.57;;;-0.30;99.90;;;;;;5059287;28;20976;-51
2023/04/04 03:04:03;;;;;;;2.27;1.90;;;-0.30;99.90;;;;;;5047982;28;20810;-54
2023/04/04 03:06:33;;;;;;;4.47;1.60;;;-0.30;99.90;;;;;;5046612;28;20220;-51
2023/04/04 03:09:03;;;;;;;2.60;1.40;;;-0.30;99.90;;;;;;5055220;28;20220;-50
2023/04/04 03:11:30;;;;;;;3.80;1.87;;;-0.30;99.90;;;;;;5050832;28;20927;-51
2023/04/04 03:13:57;;;;;;;5.00;1.70;;;-0.20;99.90;;;;;;5054068;28;20811;-56
2023/04/04 03:16:32;;;;;;;3.93;1.73;;;-0.30;99.90;;;;;;5042052;28;20215;-60
2023/04/04 03:19:00;;;;;;;3.03;1.83;;;-0.30;99.90;;;;;;5056437;28;20196;-55
2023/04/04 03:21:27;;;;;;;1.77;1.63;;;-0.30;99.90;;;;;;5029729;28;20281;-59
2023/04/04 03:23:58;;;;;;;1.80;1.60;;;-0.30;99.90;;;;;;5057710;28;20197;-51
2023/04/04 03:26:27;;;;;;;6.00;1.60;;;-0.30;99.90;;;;;;5046900;28;20572;-57
2023/04/04 03:28:54;;;;;;;2.23;1.47;;;-0.30;99.90;;;;;;5052058;28;20217;-56
2023/04/04 03:31:23;;;;;;;3.20;2.17;;;-0.30;99.90;;;;;;5037813;28;20269;-49
2023/04/04 03:33:50;;;;;;;3.50;2.00;;;-0.20;99.90;;;;;;5055603;28;20203;-57
2023/04/04 03:36:17;;;;;;;3.50;2.10;;;-0.20;99.90;;;;;;5031112;28;20212;-52
2023/04/04 03:38:48;;;;;;;6.23;1.93;;;-0.30;99.90;;;;;;5049067;28;20205;-49
2023/04/04 03:41:16;;;;;;;2.37;1.60;;;-0.30;99.90;;;;;;5042474;28;20223;-56
2023/04/04 03:43:44;;;;;;;3.03;1.80;;;-0.30;99.90;;;;;;5045585;28;20747;-50
2023/04/04 03:46:11;;;;;;;2.80;1.87;;;-0.20;99.90;;;;;;5054549;28;20273;-54
2023/04/04 03:48:38;;;;;;;5.17;2.10;;;-0.20;99.90;;;;;;5051258;28;20215;-50
2023/04/04 03:51:08;;;;;;;1.73;1.37;;;-0.10;99.90;;;;;;5032651;28;20981;-59
2023/04/04 03:53:36;;;;;;;3.30;2.00;;;-0.10;99.90;;;;;;5061261;28;20207;-56
2023/04/04 03:56:04;;;;;;;2.63;1.77;;;-0.20;99.90;;;;;;5048855;28;20229;-59
2023/04/04 03:58:35;;;;;;;3.07;1.70;;;-0.20;99.90;;;;;;5071678;28;20195;-54
2023/04/04 04:01:02;;;;;;;3.57;1.93;;;-0.10;99.90;;;;;;5069362;28;20229;-58
2023/04/04 04:03:30;;;;;;;3.40;2.00;;;-0.10;99.90;;;;;;5055759;28;20193;-50
2023/04/04 04:05:57;;;;;;;3.67;2.00;;;-0.10;99.90;;;;;;5037090;28;20879;-60
2023/04/04 04:08:27;;;;;;;2.03;1.77;;;-0.10;99.90;;;;;;5049270;28;20306;-50
2023/04/04 04:10:55;;;;;;;2.80;1.77;;;-0.20;99.90;;;;;;5046188;28;20238;-58
2023/04/04 04:13:22;;;;;;;3.03;1.77;;;-0.20;99.90;;;;;;5047044;28;20826;-53
2023/04/04 04:15:54;;;;;;;4.17;2.17;;;-0.20;99.90;;;;;;5055001;28;20203;-58
2023/04/04 04:18:23;;;;;;;3.13;1.97;;;-0.20;99.90;;;;;;5039363;28;20275;-48
2023/04/04 04:20:56;;;;;;;1.90;1.70;;;-0.20;99.90;;;;;;5049546;28;20918;-56
2023/04/04 04:23:23;;;;;;;5.77;2.17;;;-0.20;99.90;;;;;;5026232;28;20195;-53
2023/04/04 04:25:52;;;;;;;2.43;2.23;;;-0.30;99.90;;;;;;5057044;28;20580;-56
2023/04/04 04:28:22;;;;;;;4.60;2.10;;;-0.30;99.90;;;;;;5044641;28;20228;-54
2023/04/04 04:30:51;;;;;;;2.70;2.40;;;-0.30;99.90;;;;;;5051189;28;20249;-52
2023/04/04 04:33:29;;;;;;;3.57;2.13;;;-0.30;99.90;;;;;;5060803;28;21022;-50
2023/04/04 04:36:00;;;;;;;3.60;1.93;;;-0.30;99.90;;;;;;5044679;28;20256;-59
2023/04/04 04:38:32;;;;;;;3.33;2.30;;;-0.30;99.90;;;;;;5054195;28;20200;-52
2023/04/04 04:41:01;;;;;;;3.27;2.17;;;-0.20;99.90;;;;;;5044382;28;20232;-56
2023/04/04 04:43:35;;;;;;;8.43;2.40;;;-0.20;99.90;;;;;;5048885;28;20298;-53
2023/04/04 04:46:03;;;;;;;4.47;2.37;;;-0.20;99.90;;;;;;5046556;28;20224;-57
2023/04/04 04:48:31;;;;;;;2.07;1.83;;;-0.20;99.90;;;;;;5050132;28;20215;-57
2023/04/04 04:51:00;;;;;;;4.63;2.70;;;-0.20;99.90;;;;;;5051600;28;20208;-49
2023/04/04 04:53:37;;;;;;;4.97;2.50;;;-0.20;99.90;;;;;;5027474;28;21134;-56
2023/04/04 04:56:05;;;;;;;4.33;2.23;;;-0.30;99.90;;;;;;5048846;28;20300;-53
2023/04/04 04:58:34;;;;;;;5.27;2.13;;;-0.30;99.90;;;;;;5057629;28;20290;-57
2023/04/04 05:01:21;;;;;;;2.60;2.07;;;-0.40;99.90;;;;;;5053781;28;20218;-50
2023/04/04 05:03:50;;;;;;;2.43;2.10;;;-0.30;99.90;;;;;;5045774;28;20195;-52
2023/04/04 05:06:22;;;;;;;3.53;2.00;;;-0.30;99.90;;;;;;5052149;28;20283;-55
2023/04/04 05:08:50;;;;;;;4.37;2.03;;;-0.30;99.90;;;;;;5036449;28;20227;-50
2023/04/04 05:11:25;;;;;;;4.47;2.53;;;-0.30;99.90;;;;;;5058523;28;20714;-55
2023/04/04 05:13:51;;;;;;;6.00;2.30;;;-0.30;99.90;;;;;;5080369;28;20211;-54
2023/04/04 05:16:19;;;;;;;4.93;2.57;;;-0.30;99.90;;;;;;5048237;28;20215;-54
2023/04/04 05:18:50;;;;;;;2.30;2.10;;;-0.30;99.90;;;;;;5051637;28;20187;-52
2023/04/04 05:21:18;;;;;;;3.80;1.93;;;-0.30;99.90;;;;;;5052289;28;20657;-50
2023/04/04 05:23:47;;;;;;;3.57;1.87;;;-0.30;99.90;;;;;;5033962;28;21032;-51
2023/04/04 05:26:19;;;;;;;3.07;1.97;;;-0.30;99.90;;;;;;5054961;28;20191;-52
2023/04/04 05:29:08;;;;;;;2.13;1.90;;;-0.30;99.90;;;;;;5043036;28;20259;-50
2023/04/04 05:31:39;;;;;;;5.00;2.33;;;-0.30;99.90;;;;;;5053444;28;20814;-55
2023/04/04 05:34:15;;;;;;;4.03;2.10;;;-0.20;99.90;;;;;;5052416;28;20200;-55
2023/04/04 05:36:42;;;;;;;4.50;2.10;;;-0.20;99.90;;;;;;5052740;28;20202;-56
2023/04/04 05:39:10;;;;;;;4.60;2.13;;;-0.20;99.90;;;;;;5074092;28;20227;-53
2023/04/04 05:41:44;;;;;;;7.43;2.43;;;-0.10;99.90;;;;;;5043554;28;20192;-52
2023/04/04 05:44:16;;;;;;;4.00;2.33;;;-0.10;99.90;;;;;;5049442;28;20214;-55
2023/04/04 05:46:43;;;;;;;2.97;2.23;;;0.00;99.90;;;;;;5049870;28;20683;-55
2023/04/04 05:49:30;;;;;;;3.33;1.93;;;0.00;99.90;;;;;;5050331;28;20253;-55
2023/04/04 05:51:59;;;;;;;5.00;2.20;;;0.00;99.90;;;;;;5053712;28;20255;-57
2023/04/04 05:54:27;;;;;;;3.47;2.10;;;0.10;99.90;;;;;;5050705;28;20206;-52
2023/04/04 05:56:55;;;;;;;4.23;2.40;;;0.20;99.90;;;;;;5041315;28;20195;-53
2023/04/04 05:59:36;;;;;;;5.87;2.07;;;0.20;99.90;;;;;;5042104;28;20317;-55
2023/04/04 06:02:06;;;;;;;4.80;1.97;;;0.30;99.90;;;;;;5055550;28;20200;-53
2023/04/04 06:04:39;;;;;;;3.77;1.80;;;0.40;99.90;;;;;;5056192;28;20204;-55
2023/04/04 06:07:08;;;;;;;8.33;2.07;;;0.50;99.90;;;;;;5055502;28;20202;-54
2023/04/04 06:09:35;;;;;;;2.77;1.80;;;0.50;99.90;;;;;;5040571;28;20215;-55
2023/04/04 06:12:03;;;;;;;3.67;1.80;;;0.60;99.90;;;;;;5036281;28;20231;-54
2023/04/04 06:14:32;;;;;;;8.37;1.90;;;0.70;99.90;;;;;;5044297;28;20204;-52
2023/04/04 06:17:01;;;;;;;2.83;1.57;;;0.70;99.90;;;;;;5046504;28;20200;-51
2023/04/04 06:19:28;;;;;;;2.50;1.50;;;0.80;99.90;;;;;;5048578;28;20212;-51
2023/04/04 06:21:56;;;;;;;2.13;1.93;;;0.80;99.90;;;;;;5055460;28;20964;-54
2023/04/04 06:24:24;;;;;;;3.90;1.97;;;0.90;99.90;;;;;;5049555;28;20188;-55
2023/04/04 06:26:51;;;;;;;5.47;2.07;;;0.90;99.90;;;;;;5036983;28;20290;-54
2023/04/04 06:29:21;;;;;;;4.73;1.87;;;1.00;99.90;;;;;;5048579;28;20255;-55
2023/04/04 06:31:49;;;;;;;4.13;2.23;;;1.00;99.90;;;;;;5051208;28;20216;-55
2023/04/04 06:34:24;;;;;;;3.97;1.83;;;1.00;99.90;;;;;;5045616;28;20205;-54
2023/04/04 06:36:56;;;;;;;3.00;1.63;;;1.10;99.90;;;;;;5054910;28;20198;-52
2023/04/04 06:39:27;;;;;;;3.23;2.03;;;1.20;99.90;;;;;;5052112;28;20213;-51
2023/04/04 06:41:58;;;;;;;7.63;2.10;;;1.30;99.90;;;;;;5037713;28;20212;-52
2023/04/04 06:44:28;;;;;;;2.30;1.57;;;1.30;99.90;;;;;;5053234;28;20210;-52
2023/04/04 06:46:56;;;;;;;2.43;1.77;;;1.40;99.90;;;;;;5041305;28;20263;-53
2023/04/04 06:49:24;;;;;;;4.23;2.10;;;1.50;99.90;;;;;;5048944;28;20909;-53
2023/04/04 06:51:52;;;;;;;6.47;1.87;;;1.60;99.90;;;;;;5050033;28;20260;-52
2023/04/04 06:54:22;;;;;;;2.73;1.53;;;1.60;99.90;;;;;;5056813;28;20201;-54
2023/04/04 06:57:10;;;;;;;3.23;1.70;;;1.70;99.90;;;;;;5039037;28;20797;-52
2023/04/04 06:59:38;;;;;;;2.00;1.50;;;1.70;99.90;;;;;;5039930;28;20221;-55
2023/04/04 07:02:06;;;;;;;4.30;1.83;;;1.80;99.90;;;;;;5047799;28;20215;-53
2023/04/04 07:04:34;;;;;;;3.83;1.53;;;1.90;99.90;;;;;;5054472;28;20197;-55
2023/04/04 07:07:00;;;;;;;3.97;1.80;;;2.10;99.90;;;;;;5059706;28;20211;-49
2023/04/04 07:09:28;;;;;;;3.20;2.10;;;2.20;99.90;;;;;;5050146;28;20222;-53
2023/04/04 07:11:56;;;;;;;2.87;1.90;;;2.20;99.90;;;;;;5051157;28;20198;-50
2023/04/04 07:14:24;;;;;;;4.83;1.90;;;2.30;99.90;;;;;;5040741;28;20232;-55
2023/04/04 07:16:50;;;;;;;4.07;1.73;;;2.40;99.90;;;;;;5051729;28;20476;-52
2023/04/04 07:19:17;;;;;;;5.20;1.97;;;2.50;99.90;;;;;;5054665;28;20662;-54
2023/04/04 07:21:44;;;;;;;2.33;1.63;;;2.60;99.90;;;;;;5043311;28;20212;-52
2023/04/04 07:24:10;;;;;;;1.67;1.30;;;2.70;99.90;;;;;;5052741;28;20218;-52
2023/04/04 07:26:39;;;;;;;1.77;1.57;;;2.70;99.90;;;;;;5055025;28;20247;-51
2023/04/04 07:29:07;;;;;;;3.30;1.87;;;2.80;99.90;;;;;;5033718;28;20264;-55
2023/04/04 07:31:34;;;;;;;1.30;1.10;;;2.80;99.90;;;;;;5046757;28;20289;-54
2023/04/04 07:34:00;;;;;;;1.40;1.27;;;2.90;99.90;;;;;;5058674;28;20204;-52
2023/04/04 07:36:27;;;;;;;3.33;1.77;;;3.00;99.90;;;;;;5046614;28;20214;-55
2023/04/04 07:38:54;;;;;;;1.43;0.97;;;3.20;99.90;;;;;;5054443;28;20202;-50
2023/04/04 07:41:21;;;;;;;2.60;1.53;;;3.30;99.90;;;;;;5066063;28;20273;-55
2023/04/04 07:43:50;;;;;;;5.20;1.63;;;3.40;99.90;;;;;;5037999;28;20209;-53
2023/04/04 07:46:19;;;;;;;3.13;1.60;;;3.40;99.90;;;;;;5059938;28;20201;-55
2023/04/04 07:48:46;;;;;;;2.53;1.40;;;3.40;99.90;;;;;;5044923;28;20284;-53
2023/04/04 07:51:13;;;;;;;1.40;1.17;;;3.50;99.90;;;;;;5058329;28;20218;-55
2023/04/04 07:53:40;;;;;;;1.57;0.93;;;3.60;99.90;;;;;;5044013;28;20201;-52
2023/04/04 07:56:07;;;;;;;2.33;1.40;;;3.70;99.90;;;;;;5057643;28;20675;-50
2023/04/04 07:58:34;;;;;;;5.03;1.60;;;3.90;99.90;;;;;;5034153;28;20198;-54
2023/04/04 08:01:03;;;;;;;3.13;1.57;;;4.00;99.90;;;;;;5047251;28;20234;-49
2023/04/04 08:03:30;;;;;;;3.47;1.30;;;4.00;99.90;;;;;;5049434;28;20733;-54
2023/04/04 08:05:57;;;;;;;3.03;1.37;;;4.10;99.90;;;;;;5058647;28;20574;-53
2023/04/04 08:08:23;;;;;;;3.80;1.70;;;4.30;99.90;;;;;;5052052;28;20202;-55
2023/04/04 08:10:51;;;;;;;2.03;0.97;;;4.30;99.90;;;;;;5052213;28;20280;-54
2023/04/04 08:13:17;;;;;;;1.97;1.10;;;4.30;99.90;;;;;;5053571;28;20209;-55
2023/04/04 08:15:44;;;;;;;2.13;1.00;;;4.40;99.90;;;;;;5032084;28;20217;-50
2023/04/04 08:18:13;;;;;;;1.10;0.70;;;4.60;99.90;;;;;;5048656;28;20565;-53
2023/04/04 08:20:39;;;;;;;2.47;1.10;;;4.80;99.90;;;;;;5051782;28;20203;-53
2023/04/04 08:23:06;;;;;;;1.47;1.17;;;4.90;99.90;;;;;;5050359;28;20233;-54
2023/04/04 08:25:33;;;;;;;1.43;1.00;;;4.80;99.90;;;;;;5046781;28;20206;-54
2023/04/04 08:28:03;;;;;;;1.77;1.20;;;4.70;99.90;;;;;;5061152;28;20695;-52
2023/04/04 08:30:29;;;;;;;1.50;1.10;;;4.80;99.90;;;;;;5045394;28;20645;-54
2023/04/04 08:32:56;;;;;;;3.77;0.90;;;4.90;99.90;;;;;;5056809;28;20203;-50
2023/04/04 08:35:25;;;;;;;1.63;0.80;;;4.90;99.90;;;;;;5046193;28;20282;-55
2023/04/04 08:37:51;;;;;;;2.23;1.00;;;5.10;99.90;;;;;;5046570;28;21010;-52
2023/04/04 08:40:19;;;;;;;2.77;1.03;;;5.10;99.90;;;;;;5055276;28;20211;-56
2023/04/04 08:42:46;;;;;;;1.30;1.00;;;5.10;99.90;;;;;;5055776;28;20205;-53
2023/04/04 08:45:18;;;;;;;2.30;0.80;;;5.10;99.90;;;;;;5061694;28;20216;-50
2023/04/04 08:47:48;;;;;;;1.47;0.97;;;5.10;99.90;;;;;;5037501;28;20210;-52
2023/04/04 08:50:16;;;;;;;2.87;1.20;;;5.10;99.90;;;;;;5052550;28;20293;-54
2023/04/04 08:52:46;;;;;;;2.07;1.00;;;5.20;99.90;;;;;;5042958;28;20415;-51
2023/04/04 08:55:14;;;;;;;1.97;1.20;;;5.20;99.90;;;;;;5053558;28;20573;-49
2023/04/04 08:57:40;;;;;;;1.83;0.93;;;5.30;99.90;;;;;;5052746;28;20194;-51
2023/04/04 09:00:09;;;;;;;1.93;1.17;;;5.50;99.90;;;;;;5054124;28;20294;-50
2023/04/04 09:02:43;;;;;;;4.87;1.30;;;5.60;99.90;;;;;;5033336;28;20276;-50
2023/04/04 09:05:12;;;;;;;1.37;0.83;;;5.70;99.90;;;;;;5049466;28;20249;-49
2023/04/04 09:07:41;;;;;;;4.30;0.90;;;5.80;99.90;;;;;;5056592;28;20273;-52
2023/04/04 09:10:11;;;;;;;3.10;1.00;;;5.90;99.90;;;;;;5054017;28;20633;-53
2023/04/04 09:12:41;;;;;;;2.60;0.80;;;5.90;99.90;;;;;;5049085;28;20203;-54
2023/04/04 09:15:10;;;;;;;0.83;0.83;;;5.90;99.90;;;;;;5053948;28;20251;-50
2023/04/04 09:17:37;;;;;;;1.30;0.83;;;5.90;99.00;;;;;;5031661;28;20211;-53
2023/04/04 09:20:27;;;;;;;0.90;0.70;;;5.80;98.80;;;;;;5050837;28;20587;-51
2023/04/04 09:22:54;;;;;;;4.00;1.00;;;5.90;97.20;;;;;;5048825;28;20234;-54
2023/04/04 09:25:22;;;;;;;2.97;1.17;;;5.80;97.40;;;;;;5048238;28;20198;-51
2023/04/04 09:27:49;;;;;;;3.83;1.07;;;5.80;97.30;;;;;;5050647;28;20229;-55
2023/04/04 09:30:16;;;;;;;0.63;0.63;;;5.80;97.20;;;;;;5059531;28;20279;-54
2023/04/04 09:32:43;;;;;;;2.00;0.90;;;5.80;97.10;;;;;;5037399;28;20211;-53
2023/04/04 09:35:12;;;;;;;1.77;0.87;;;5.90;97.30;;;;;;5036004;28;20205;-53
2023/04/04 09:37:40;;;;;;;1.80;0.73;;;6.10;96.90;;;;;;5054390;28;20195;-49
2023/04/04 09:40:09;;;;;;;2.07;0.73;;;6.20;96.40;;;;;;5048679;28;20294;-50
2023/04/04 09:42:38;;;;;;;2.70;0.60;;;6.30;95.80;;;;;;5047096;28;20190;-54
2023/04/04 09:45:08;;;;;;;0.50;0.50;;;6.30;93.80;;;;;;5050379;28;20684;-53
2023/04/04 09:47:41;;;;;;;1.47;0.63;;;6.40;93.70;;;;;;5049170;28;20214;-53
2023/04/04 09:50:09;;;;;;;0.60;0.50;;;6.50;93.10;;;;;;5027578;28;20249;-54
2023/04/04 09:52:35;;;;;;;2.63;0.80;;;6.40;92.60;;;;;;5054863;28;20191;-52
2023/04/04 09:55:05;;;;;;;2.70;0.60;;;6.40;92.10;;;;;;5056934;28;20221;-55
2023/04/04 09:57:34;;;;;;;1.50;0.60;;;6.30;92.00;;;;;;5045151;28;20293;-52
2023/04/04 10:00:05;;;;;;;2.83;0.60;;;6.40;92.20;;;;;;5053606;28;20218;-55
2023/04/04 10:02:38;;;;;;;2.57;0.70;;;6.60;91.80;;;;;;5054768;28;20677;-52
2023/04/04 10:05:05;;;;;;;1.47;0.57;;;6.70;91.20;;;;;;5035752;28;20211;-56
2023/04/04 10:07:33;;;;;;;3.00;0.73;;;6.60;90.10;;;;;;5045314;28;20756;-54
2023/04/04 10:10:02;;;;;;;1.10;0.60;;;6.50;90.10;;;;;;5057030;28;20248;-55
2023/04/04 10:12:32;;;;;;;0.70;0.50;;;6.60;90.40;;;;;;5051637;28;20209;-55
2023/04/04 10:14:59;;;;;;;2.83;1.07;;;6.70;90.60;;;;;;5047840;28;20971;-54
2023/04/04 10:17:30;;;;;;;1.73;0.87;;;6.80;90.20;;;;;;5061858;28;20186;-55
2023/04/04 10:20:00;;;;;;;0.40;0.40;;;6.80;87.70;;;;;;5045451;28;20280;-55
2023/04/04 10:22:27;;;;;;;1.50;0.67;;;6.80;89.30;;;;;;5044379;28;23084;-55
2023/04/04 10:24:54;;;;;;;0.70;0.70;;;7.00;89.80;;;;;;5053980;28;20199;-56
2023/04/04 10:27:21;;;;;;;3.40;0.80;;;7.10;88.20;;;;;;5056082;28;20214;-55
2023/04/04 10:29:48;;;;;;;1.50;0.60;;;7.10;88.20;;;;;;5049766;28;20420;-56
2023/04/04 10:32:22;;;;;;;1.63;0.60;;;7.10;88.20;;;;;;5056826;28;20187;-52
2023/04/04 10:34:56;;;;;;;1.00;0.40;;;7.20;85.70;;;;;;5054533;28;20195;-53
2023/04/04 10:37:27;;;;;;;0.77;0.57;;;7.20;86.60;;;;;;5025909;28;21052;-50
2023/04/04 10:39:59;;;;;;;1.40;0.50;;;7.20;85.60;;;;;;5060526;28;20615;-55
2023/04/04 10:42:32;;;;;;;0.83;0.50;;;7.30;85.00;;;;;;5056861;28;20949;-55
2023/04/04 10:45:01;;;;;;;0.80;0.47;;;7.30;84.00;;;;;;5044390;28;20276;-55
2023/04/04 10:47:29;;;;;;;1.13;0.70;;;7.30;83.60;;;;;;5042975;28;20910;-51
2023/04/04 10:49:57;;;;;;;1.20;0.60;;;7.30;84.00;;;;;;5058691;28;20587;-60
2023/04/04 10:52:27;;;;;;;0.93;0.60;;;7.40;83.90;;;;;;5043200;28;20206;-50
2023/04/04 10:54:57;;;;;;;1.13;0.50;;;7.50;83.90;;;;;;5047717;28;20213;-51
2023/04/04 10:57:24;;;;;;;2.20;0.70;;;7.50;83.70;;;;;;5061477;28;21034;-54
2023/04/04 10:59:57;;;;;;;0.77;0.47;;;7.70;83.00;;;;;;5041658;28;20257;-56
2023/04/04 11:02:50;;;;;;;0.47;0.47;;;7.80;83.10;;;;;;5057642;28;20322;-53
2023/04/04 11:05:23;;;;;;;0.50;0.50;;;7.80;82.20;;;;;;5048720;28;21005;-55
2023/04/04 11:07:56;;;;;;;1.43;0.83;;;7.80;80.60;;;;;;5058679;28;20207;-55
2023/04/04 11:10:24;;;;;;;1.10;0.70;;;7.70;82.30;;;;;;5035715;28;20211;-55
2023/04/04 11:12:57;;;;;;;0.43;0.33;;;7.70;79.00;;;;;;5054965;28;20240;-54
2023/04/04 11:15:25;;;;;;;1.63;0.60;;;7.60;80.70;;;;;;5055669;28;20203;-54
2023/04/04 11:17:56;;;;;;;1.93;0.67;;;7.80;80.60;;;;;;5054633;28;20212;-52
2023/04/04 11:20:33;;;;;;;2.40;0.73;;;7.90;80.50;;;;;;5045128;28;20297;-55
2023/04/04 11:23:04;;;;;;;0.57;0.50;;;8.10;78.60;;;;;;5055353;28;20196;-53
2023/04/04 11:25:33;;;;;;;2.63;0.70;;;8.10;78.50;;;;;;5028672;28;20209;-54
2023/04/04 11:28:05;;;;;;;0.87;0.43;;;8.20;79.40;;;;;;5059621;28;20202;-55
2023/04/04 11:30:38;;;;;;;1.83;0.77;;;8.30;76.30;;;;;;5042896;28;20245;-53
2023/04/04 11:33:05;;;;;;;0.80;0.43;;;8.10;75.50;;;;;;5057350;28;20186;-53
2023/04/04 11:35:33;;;;;;;1.20;0.50;;;8.00;75.70;;;;;;5039553;28;20256;-56
2023/04/04 11:38:01;;;;;;;1.53;0.70;;;8.00;74.50;;;;;;5061761;28;20190;-51
2023/04/04 11:40:38;;;;;;;1.73;0.70;;;8.00;75.20;;;;;;5036044;28;20211;-55
2023/04/04 11:43:11;;;;;;;2.53;0.77;;;7.90;73.60;;;;;;5051393;28;20206;-54
2023/04/04 11:45:43;;;;;;;1.27;0.60;;;7.90;74.50;;;;;;5043631;28;20986;-56
2023/04/04 11:48:11;;;;;;;0.60;0.60;;;7.90;73.80;;;;;;5056992;28;20964;-52
2023/04/04 11:50:41;;;;;;;1.13;0.60;;;7.90;75.20;;;;;;5050974;28;20250;-51
2023/04/04 11:53:09;;;;;;;1.10;0.70;;;7.90;74.20;;;;;;5063307;28;20191;-52
2023/04/04 11:55:41;;;;;;;1.80;1.07;;;7.90;73.40;;;;;;5025670;28;20694;-56
2023/04/04 11:58:09;;;;;;;0.73;0.43;;;7.90;72.30;;;;;;5044410;28;20210;-58
2023/04/04 12:00:38;;;;;;;2.03;1.00;;;8.00;72.20;;;;;;5048389;28;20211;-51
2023/04/04 12:03:06;;;;;;;2.10;0.80;;;8.10;71.50;;;;;;5048885;28;20201;-57
2023/04/04 12:05:33;;;;;;;1.73;0.67;;;8.00;71.50;;;;;;5053021;28;20206;-53
2023/04/04 12:08:03;;;;;;;2.10;0.87;;;8.10;71.10;;;;;;5057339;28;20211;-57
2023/04/04 12:10:33;;;;;;;2.73;0.57;;;8.10;70.40;;;;;;5052177;28;20957;-52
2023/04/04 12:13:01;;;;;;;1.60;0.70;;;8.10;71.00;;;;;;5025614;28;20211;-57
2023/04/04 12:15:30;;;;;;;49.33;34.97;;;8.10;71.10;;;;;;5055266;28;20997;-51
2023/04/04 12:17:57;;;;;;;2.87;2.67;;;8.20;71.30;;;;;;5042381;28;20206;-57
2023/04/04 12:20:24;;;;;;;2.43;1.70;;;8.30;72.00;;;;;;5047420;28;20222;-58
2023/04/04 12:22:51;;;;;;;1.30;1.20;;;8.30;69.10;;;;;;5043436;28;20229;-55
2023/04/04 12:25:22;;;;;;;1.27;0.83;;;8.30;69.40;;;;;;5052171;28;20212;-53
2023/04/04 12:27:49;;;;;;;2.27;0.93;;;8.20;68.60;;;;;;5032807;28;20206;-49
2023/04/04 12:30:17;;;;;;;1.10;0.50;;;8.20;70.70;;;;;;5060288;28;20222;-54
2023/04/04 12:32:45;;;;;;;3.70;0.83;;;8.40;68.60;;;;;;5038958;28;20280;-58
2023/04/04 12:35:14;;;;;;;3.33;0.70;;;8.40;69.90;;;;;;5044865;28;20268;-52
2023/04/04 12:37:56;;;;;;;1.43;0.80;;;8.50;71.70;;;;;;5046566;28;20199;-58
2023/04/04 12:40:26;;;;;;;1.40;0.60;;;;;;;;;;5059555;28;20215;-58
2023/04/04 12:42:54;;;;;;;2.63;1.00;;;8.80;69.80;;;;;;5025145;28;20215;-53
2023/04/04 12:45:22;;;;;;;2.27;0.67;;;8.90;69.90;;;;;;5059202;28;20215;-56
2023/04/04 12:47:52;;;;;;;1.10;0.67;;;8.70;68.50;;;;;;5045020;28;20204;-52
2023/04/04 12:50:22;;;;;;;1.03;0.70;;;8.60;67.00;;;;;;5052649;28;20222;-57
2023/04/04 12:52:52;;;;;;;1.73;0.97;;;8.50;68.10;;;;;;5045116;28;20199;-53
2023/04/04 12:55:21;;;;;;;0.80;0.70;;;8.50;67.10;;;;;;5047869;28;20225;-54
2023/04/04 12:57:50;;;;;;;2.67;0.87;;;8.50;68.40;;;;;;5043142;28;20198;-56
2023/04/04 13:00:20;;;;;;;1.20;0.90;;;8.60;67.50;;;;;;5032030;28;20227;-58
2023/04/04 13:02:51;;;;;;;1.93;0.70;;;8.70;67.30;;;;;;5044256;28;20203;-55